Time;durP1;ratioP1;P1;durP2;ratioP2;P2;SDS_P1;SDS_P2;PMS_P1;PMS_P2;Temp;Humidity;BMP_temperature;BMP_pressure;BME280_temperature;BME280_humidity;BME280_pressure;Samples;Min_cycle;Max_cycle;Signal;HPM_P1;HPM_P2
2023/12/15 00:00:18;;;;;;;13.00;4.67;;;;;;;;;;4995334;28;1000335;-62
2023/12/15 00:02:45;;;;;;;13.50;5.55;;;;;;;;;;5025994;28;20024;-61
2023/12/15 00:05:10;;;;;;;11.38;4.80;;;;;;;;;;5027143;28;20030;-62
2023/12/15 00:07:35;;;;;;;12.48;4.75;;;;;;;;;;5031299;28;20048;-62
2023/12/15 00:10:00;;;;;;;14.20;4.90;;;;;;;;;;5030220;28;20103;-62
2023/12/15 00:12:25;;;;;;;12.07;4.93;;;;;;;;;;5021140;28;20034;-62
2023/12/15 00:14:50;;;;;;;12.82;4.72;;;;;;;;;;5019295;28;20439;-62
2023/12/15 00:17:16;;;;;;;14.27;4.53;;;;;;;;;;5019732;28;20030;-62
2023/12/15 00:19:41;;;;;;;12.60;4.47;;;;;;;;;;5031109;28;20033;-62
2023/12/15 00:22:06;;;;;;;13.13;4.70;;;;;;;;;;5026072;28;20060;-61
2023/12/15 00:24:31;;;;;;;13.88;5.10;;;;;;;;;;5023987;28;20029;-61
2023/12/15 00:26:58;;;;;;;14.20;5.05;;;;;;;;;;5030081;28;20030;-62
2023/12/15 00:29:24;;;;;;;13.93;5.20;;;;;;;;;;5031033;28;20409;-62
2023/12/15 00:31:49;;;;;;;11.65;4.97;;;;;;;;;;5027559;28;20030;-62
2023/12/15 00:34:14;;;;;;;16.33;5.25;;;;;;;;;;5022323;28;20026;-62
2023/12/15 00:36:39;;;;;;;12.68;4.60;;;;;;;;;;5028423;28;20030;-62
2023/12/15 00:39:04;;;;;;;15.23;5.05;;;;;;;;;;5030557;28;20080;-62
2023/12/15 00:41:29;;;;;;;11.85;4.65;;;;;;;;;;5028291;28;20044;-61
2023/12/15 00:43:54;;;;;;;14.35;5.22;;;;;;;;;;5018928;28;20059;-61
2023/12/15 00:46:20;;;;;;;12.05;5.03;;;;;;;;;;5010981;28;20029;-61
2023/12/15 00:48:45;;;;;;;15.07;5.22;;;;;;;;;;5021137;28;20037;-61
2023/12/15 00:51:10;;;;;;;16.65;5.28;;;;;;;;;;5023641;28;20068;-62
2023/12/15 00:53:35;;;;;;;16.93;5.90;;;;;;;;;;5019866;28;20033;-61
2023/12/15 00:56:00;;;;;;;14.13;5.07;;;;;;;;;;5034605;28;20017;-61
2023/12/15 00:58:26;;;;;;;12.25;4.60;;;;;;;;;;5050109;28;20416;-62
2023/12/15 01:00:51;;;;;;;13.67;5.13;;;;;;;;;;5039125;28;20116;-61
2023/12/15 01:03:16;;;;;;;16.23;5.60;;;;;;;;;;5017165;28;20463;-62
2023/12/15 01:05:41;;;;;;;12.52;4.78;;;;;;;;;;5030584;28;20462;-62
2023/12/15 01:08:06;;;;;;;15.43;5.40;;;;;;;;;;5030618;28;20413;-62
2023/12/15 01:10:31;;;;;;;13.63;5.00;;;;;;;;;;5029052;28;20030;-62
2023/12/15 01:12:57;;;;;;;13.73;5.50;;;;;;;;;;5019221;28;20018;-62
2023/12/15 01:15:22;;;;;;;13.68;5.43;;;;;;;;;;5025891;28;20087;-60
2023/12/15 01:17:47;;;;;;;13.45;5.22;;;;;;;;;;5030108;28;20028;-61
2023/12/15 01:20:13;;;;;;;16.67;5.43;;;;;;;;;;5030117;28;20504;-61
2023/12/15 01:22:38;;;;;;;18.17;6.57;;;;;;;;;;5022489;28;20022;-60
2023/12/15 01:25:04;;;;;;;17.65;6.00;;;;;;;;;;5021822;28;20033;-62
2023/12/15 01:27:29;;;;;;;20.15;6.22;;;;;;;;;;5030094;28;20049;-62
2023/12/15 01:29:54;;;;;;;15.60;5.88;;;;;;;;;;5029892;28;20021;-62
2023/12/15 01:32:19;;;;;;;13.25;5.15;;;;;;;;;;5021016;28;20042;-62
2023/12/15 01:34:44;;;;;;;14.52;4.90;;;;;;;;;;5018023;28;20080;-62
2023/12/15 01:37:10;;;;;;;15.43;5.30;;;;;;;;;;5010566;28;20037;-62
2023/12/15 01:39:35;;;;;;;15.95;5.22;;;;;;;;;;5025271;28;20045;-62
2023/12/15 01:42:00;;;;;;;14.88;5.28;;;;;;;;;;5023444;28;20025;-62
2023/12/15 01:44:25;;;;;;;15.07;5.38;;;;;;;;;;5020710;28;20021;-61
2023/12/15 01:46:50;;;;;;;15.27;5.38;;;;;;;;;;5029523;28;20123;-62
2023/12/15 01:49:15;;;;;;;13.50;5.03;;;;;;;;;;5029754;28;20038;-61
2023/12/15 01:51:41;;;;;;;15.03;5.47;;;;;;;;;;5028362;28;20393;-61
2023/12/15 01:54:07;;;;;;;12.55;4.78;;;;;;;;;;5021187;28;20028;-62
2023/12/15 01:56:32;;;;;;;10.82;4.50;;;;;;;;;;5010216;28;20093;-61
2023/12/15 01:58:57;;;;;;;12.40;4.15;;;;;;;;;;5008981;28;20017;-61
2023/12/15 02:01:22;;;;;;;10.87;4.27;;;;;;;;;;5010555;28;20117;-61
2023/12/15 02:03:48;;;;;;;10.27;4.07;;;;;;;;;;5018635;28;20482;-60
2023/12/15 02:06:13;;;;;;;11.93;4.32;;;;;;;;;;5016587;28;20468;-61
2023/12/15 02:08:43;;;;;;;10.25;4.35;;;;;;;;;;5020379;28;20400;-61
2023/12/15 02:11:08;;;;;;;9.35;4.35;;;;;;;;;;5011248;28;20028;-62
2023/12/15 02:13:33;;;;;;;10.63;4.03;;;;;;;;;;5022148;28;20030;-61
2023/12/15 02:15:58;;;;;;;12.07;4.68;;;;;;;;;;5013192;28;20037;-62
2023/12/15 02:18:23;;;;;;;12.47;4.57;;;;;;;;;;5013247;28;20053;-64
2023/12/15 02:20:48;;;;;;;13.27;4.88;;;;;;;;;;5014024;28;20026;-61
2023/12/15 02:23:13;;;;;;;12.33;5.00;;;;;;;;;;5023768;28;20555;-61
2023/12/15 02:25:39;;;;;;;9.57;4.13;;;;;;;;;;5031583;28;20025;-62
2023/12/15 02:28:04;;;;;;;11.75;4.60;;;;;;;;;;5033193;28;20033;-60
2023/12/15 02:30:29;;;;;;;11.77;5.17;;;;;;;;;;5033009;28;20488;-62
2023/12/15 02:32:54;;;;;;;11.95;5.20;;;;;;;;;;5023626;28;20435;-61
2023/12/15 02:35:19;;;;;;;13.73;5.18;;;;;;;;;;5017807;28;20113;-62
2023/12/15 02:37:44;;;;;;;13.20;5.80;;;;;;;;;;5013646;28;20073;-62
2023/12/15 02:40:10;;;;;;;13.70;5.50;;;;;;;;;;5013567;28;20022;-63
2023/12/15 02:42:35;;;;;;;18.70;6.70;;;;;;;;;;5014252;28;20033;-61
2023/12/15 02:45:00;;;;;;;14.13;5.70;;;;;;;;;;5027880;28;20025;-62
2023/12/15 02:47:26;;;;;;;16.67;6.22;;;;;;;;;;5032863;28;20427;-62
2023/12/15 02:49:54;;;;;;;15.65;6.72;;;;;;;;;;5032358;28;20100;-61
2023/12/15 02:52:19;;;;;;;15.52;5.93;;;;;;;;;;5028694;28;20040;-62
2023/12/15 02:54:44;;;;;;;16.20;5.90;;;;;;;;;;5023967;28;20053;-62
2023/12/15 02:57:09;;;;;;;18.37;6.60;;;;;;;;;;5032148;28;20048;-62
2023/12/15 02:59:34;;;;;;;16.70;5.97;;;;;;;;;;5032303;28;20130;-63
2023/12/15 03:01:59;;;;;;;17.95;6.80;;;;;;;;;;5015074;28;20026;-61
2023/12/15 03:04:24;;;;;;;18.70;6.93;;;;;;;;;;5022797;28;20737;-63
2023/12/15 03:06:50;;;;;;;19.23;6.63;;;;;;;;;;5030323;28;20009;-62
2023/12/15 03:09:15;;;;;;;16.85;6.65;;;;;;;;;;5031771;28;20029;-62
2023/12/15 03:11:40;;;;;;;14.93;5.73;;;;;;;;;;5029942;28;20183;-63
2023/12/15 03:14:05;;;;;;;14.67;5.57;;;;;;;;;;5023756;28;20017;-61
2023/12/15 03:16:30;;;;;;;17.45;6.88;;;;;;;;;;5018095;28;20055;-63
2023/12/15 03:18:56;;;;;;;16.35;6.68;;;;;;;;;;5031678;28;20385;-61
2023/12/15 03:21:21;;;;;;;17.20;6.70;;;;;;;;;;5031847;28;20033;-62
2023/12/15 03:23:46;;;;;;;17.40;7.10;;;;;;;;;;5016838;28;20014;-62
2023/12/15 03:26:11;;;;;;;20.65;7.35;;;;;;;;;;5025601;28;20362;-62
2023/12/15 03:28:38;;;;;;;18.20;6.47;;;;;;;;;;5031751;28;20100;-62
2023/12/15 03:31:03;;;;;;;19.60;7.38;;;;;;;;;;5030794;28;20017;-63
2023/12/15 03:33:32;;;;;;;23.63;7.90;;;;;;;;;;5025357;28;20025;-63
2023/12/15 03:35:57;;;;;;;25.98;8.15;;;;;;;;;;5024213;28;20028;-63
2023/12/15 03:38:23;;;;;;;21.85;8.77;;;;;;;;;;5031829;28;20029;-62
2023/12/15 03:40:48;;;;;;;25.10;8.63;;;;;;;;;;5029828;28;20474;-62
2023/12/15 03:43:13;;;;;;;31.27;10.33;;;;;;;;;;5024399;28;20022;-61
2023/12/15 03:45:38;;;;;;;25.20;8.77;;;;;;;;;;5020711;28;20026;-62
2023/12/15 03:48:03;;;;;;;25.60;9.02;;;;;;;;;;5029884;28;20473;-62
2023/12/15 03:50:29;;;;;;;24.20;7.57;;;;;;;;;;5031036;28;20074;-62
2023/12/15 03:52:54;;;;;;;25.70;8.73;;;;;;;;;;5028905;28;20021;-62
2023/12/15 03:55:19;;;;;;;25.63;8.63;;;;;;;;;;5032028;28;20022;-61
2023/12/15 03:57:44;;;;;;;26.05;8.95;;;;;;;;;;5029569;28;20020;-63
2023/12/15 04:00:10;;;;;;;27.27;9.75;;;;;;;;;;5032839;28;20396;-62
2023/12/15 04:02:35;;;;;;;27.13;9.30;;;;;;;;;;5030796;28;20034;-62
2023/12/15 04:05:01;;;;;;;27.38;10.05;;;;;;;;;;5031238;28;20029;-62
2023/12/15 04:07:26;;;;;;;25.50;9.75;;;;;;;;;;5035493;28;20037;-61
2023/12/15 04:09:52;;;;;;;29.02;9.77;;;;;;;;;;5033135;28;20500;-62
2023/12/15 04:12:17;;;;;;;23.73;9.13;;;;;;;;;;5028389;28;20065;-61
2023/12/15 04:14:42;;;;;;;26.10;9.90;;;;;;;;;;5023520;28;20033;-62
2023/12/15 04:17:07;;;;;;;19.40;7.82;;;;;;;;;;5011962;28;20129;-62
2023/12/15 04:19:32;;;;;;;29.87;9.77;;;;;;;;;;5011617;28;20029;-62
2023/12/15 04:21:58;;;;;;;25.20;9.50;;;;;;;;;;5013166;28;20060;-62
2023/12/15 04:24:23;;;;;;;30.33;9.70;;;;;;;;;;5022725;28;20069;-62
2023/12/15 04:26:48;;;;;;;24.92;9.02;;;;;;;;;;5012728;28;20072;-63
2023/12/15 04:29:13;;;;;;;23.97;8.50;;;;;;;;;;5030715;28;20500;-63
2023/12/15 04:31:39;;;;;;;25.17;9.02;;;;;;;;;;5028938;28;20017;-62
2023/12/15 04:34:04;;;;;;;21.33;8.18;;;;;;;;;;5022686;28;20021;-61
2023/12/15 04:36:29;;;;;;;19.30;7.72;;;;;;;;;;5027709;28;20102;-65
2023/12/15 04:38:54;;;;;;;22.17;8.60;;;;;;;;;;5031474;28;20037;-62
2023/12/15 04:41:20;;;;;;;19.90;7.93;;;;;;;;;;5032592;28;20037;-62
2023/12/15 04:43:46;;;;;;;22.95;8.52;;;;;;;;;;5025338;28;20028;-63
2023/12/15 04:46:11;;;;;;;21.03;8.23;;;;;;;;;;5029375;28;20034;-63
2023/12/15 04:48:36;;;;;;;26.80;8.65;;;;;;;;;;5034849;28;20432;-63
2023/12/15 04:51:01;;;;;;;22.90;8.27;;;;;;;;;;5031882;28;20111;-62
2023/12/15 04:53:26;;;;;;;21.45;7.90;;;;;;;;;;5021226;28;20056;-62
2023/12/15 04:55:51;;;;;;;27.95;8.50;;;;;;;;;;5019880;28;20080;-62
2023/12/15 04:58:17;;;;;;;20.60;8.30;;;;;;;;;;5015381;28;20028;-63
2023/12/15 05:00:42;;;;;;;20.17;7.63;;;;;;;;;;5010444;28;20041;-62
2023/12/15 05:03:07;;;;;;;24.80;8.98;;;;;;;;;;5018547;28;20080;-62
2023/12/15 05:05:32;;;;;;;20.02;8.40;;;;;;;;;;5019596;28;20045;-62
2023/12/15 05:07:57;;;;;;;21.55;7.90;;;;;;;;;;5026398;28;20025;-63
2023/12/15 05:10:22;;;;;;;18.95;8.45;;;;;;;;;;5014422;28;20157;-62
2023/12/15 05:12:48;;;;;;;20.60;8.55;;;;;;;;;;5016273;28;20022;-61
2023/12/15 05:15:13;;;;;;;24.02;8.95;;;;;;;;;;5020708;28;20029;-63
2023/12/15 05:17:38;;;;;;;21.77;8.60;;;;;;;;;;5021959;28;20021;-62
2023/12/15 05:20:04;;;;;;;22.55;8.65;;;;;;;;;;5030077;28;20474;-63
2023/12/15 05:22:29;;;;;;;20.23;8.45;;;;;;;;;;5014263;28;20033;-63
2023/12/15 05:24:54;;;;;;;23.23;8.68;;;;;;;;;;5018356;28;20026;-63
2023/12/15 05:27:19;;;;;;;18.00;7.57;;;;;;;;;;5025028;28;20460;-63
2023/12/15 05:29:45;;;;;;;21.02;7.88;;;;;;;;;;5023613;28;20033;-63
2023/12/15 05:32:14;;;;;;;20.38;7.82;;;;;;;;;;5027480;28;20435;-62
2023/12/15 05:34:39;;;;;;;21.73;9.02;;;;;;;;;;5017412;28;20036;-63
2023/12/15 05:37:04;;;;;;;21.23;8.47;;;;;;;;;;5020368;28;20026;-63
2023/12/15 05:39:30;;;;;;;20.02;8.25;;;;;;;;;;5014992;28;20040;-63
2023/12/15 05:41:55;;;;;;;18.47;8.10;;;;;;;;;;5006322;28;20097;-63
2023/12/15 05:44:20;;;;;;;21.90;8.18;;;;;;;;;;5007218;28;20025;-62
2023/12/15 05:46:45;;;;;;;19.48;7.40;;;;;;;;;;5012302;28;20029;-62
2023/12/15 05:49:10;;;;;;;19.43;8.13;;;;;;;;;;5015922;28;20480;-63
2023/12/15 05:51:35;;;;;;;19.97;6.93;;;;;;;;;;5025212;28;20365;-63
2023/12/15 05:54:01;;;;;;;21.63;8.27;;;;;;;;;;5020649;28;20586;-63
2023/12/15 05:56:26;;;;;;;18.90;6.72;;;;;;;;;;5014802;28;20029;-62
2023/12/15 05:58:51;;;;;;;19.67;7.60;;;;;;;;;;5028111;28;20033;-63
2023/12/15 06:01:16;;;;;;;17.70;6.60;;;;;;;;;;5024248;28;20045;-62
2023/12/15 06:03:42;;;;;;;17.17;6.53;;;;;;;;;;5022608;28;20083;-62
2023/12/15 06:06:11;;;;;;;18.92;6.45;;;;;;;;;;5022266;28;20029;-63
2023/12/15 06:08:36;;;;;;;16.65;6.55;;;;;;;;;;5025842;28;20040;-63
2023/12/15 06:11:01;;;;;;;19.63;7.40;;;;;;;;;;5024212;28;20447;-63
2023/12/15 06:13:26;;;;;;;15.43;6.40;;;;;;;;;;5023724;28;20111;-62
2023/12/15 06:15:51;;;;;;;16.00;6.32;;;;;;;;;;5023319;28;20381;-63
2023/12/15 06:18:17;;;;;;;20.70;7.30;;;;;;;;;;5024859;28;20029;-63
2023/12/15 06:20:42;;;;;;;17.05;6.38;;;;;;;;;;5026628;28;20076;-63
2023/12/15 06:23:07;;;;;;;15.20;6.18;;;;;;;;;;5027836;28;20393;-62
2023/12/15 06:25:32;;;;;;;18.25;6.30;;;;;;;;;;5031176;28;20044;-63
2023/12/15 06:27:57;;;;;;;16.50;5.67;;;;;;;;;;5032066;28;20025;-62
2023/12/15 06:30:22;;;;;;;15.07;6.10;;;;;;;;;;5025680;28;20033;-62
2023/12/15 06:32:47;;;;;;;15.07;6.40;;;;;;;;;;5030154;28;20025;-63
2023/12/15 06:35:14;;;;;;;16.37;6.37;;;;;;;;;;5031010;28;20075;-63
2023/12/15 06:37:39;;;;;;;14.10;5.88;;;;;;;;;;5028953;28;20023;-62
2023/12/15 06:40:05;;;;;;;16.67;6.55;;;;;;;;;;5028099;28;20520;-63
2023/12/15 06:42:30;;;;;;;17.35;6.82;;;;;;;;;;5031186;28;20045;-63
2023/12/15 06:44:55;;;;;;;14.68;6.32;;;;;;;;;;5030944;28;20022;-62
2023/12/15 06:47:20;;;;;;;16.05;6.65;;;;;;;;;;5031637;28;20514;-61
2023/12/15 06:49:46;;;;;;;14.30;6.22;;;;;;;;;;5023772;28;20052;-63
2023/12/15 06:52:11;;;;;;;16.67;6.90;;;;;;;;;;5024052;28;20079;-63
2023/12/15 06:54:39;;;;;;;17.08;6.20;;;;;;;;;;5021929;28;20097;-63
2023/12/15 06:57:06;;;;;;;17.63;6.88;;;;;;;;;;5031966;28;20489;-61
2023/12/15 06:59:31;;;;;;;17.70;6.38;;;;;;;;;;5029155;28;20026;-63
2023/12/15 07:01:56;;;;;;;16.83;6.85;;;;;;;;;;5024711;28;20028;-65
2023/12/15 07:04:21;;;;;;;18.70;7.22;;;;;;;;;;5027092;28;20087;-65
2023/12/15 07:06:46;;;;;;;17.40;6.63;;;;;;;;;;5025464;28;20112;-64
2023/12/15 07:09:11;;;;;;;17.67;6.80;;;;;;;;;;5021865;28;20037;-66
2023/12/15 07:11:37;;;;;;;17.83;6.35;;;;;;;;;;5022900;28;20029;-65
2023/12/15 07:14:02;;;;;;;17.40;7.40;;;;;;;;;;5019836;28;20125;-65
2023/12/15 07:16:27;;;;;;;15.87;6.70;;;;;;;;;;5022396;28;20029;-63
2023/12/15 07:18:52;;;;;;;15.87;7.00;;;;;;;;;;5023529;28;20022;-64
2023/12/15 07:21:17;;;;;;;16.38;7.05;;;;;;;;;;5028335;28;20033;-63
2023/12/15 07:23:42;;;;;;;16.73;6.63;;;;;;;;;;5028197;28;20060;-63
2023/12/15 07:26:09;;;;;;;15.13;6.97;;;;;;;;;;5024580;28;20489;-63
2023/12/15 07:28:35;;;;;;;;;;;;;;;;;;5025765;28;20033;-63
2023/12/15 07:31:00;;;;;;;18.80;7.00;;;;;;;;;;5025166;28;20270;-64
2023/12/15 07:33:26;;;;;;;17.15;7.18;;;;;;;;;;5024675;28;20036;-63
2023/12/15 07:35:51;;;;;;;21.67;7.57;;;;;;;;;;5017760;28;20099;-63
2023/12/15 07:38:16;;;;;;;19.52;7.07;;;;;;;;;;5022467;28;20089;-63
2023/12/15 07:40:41;;;;;;;17.40;7.25;;;;;;;;;;5021241;28;20031;-62
2023/12/15 07:43:06;;;;;;;17.93;7.57;;;;;;;;;;5018756;28;20021;-62
2023/12/15 07:45:31;;;;;;;18.08;7.45;;;;;;;;;;5016493;28;20026;-65
2023/12/15 07:47:57;;;;;;;20.30;8.05;;;;;;;;;;5018815;28;20034;-63
2023/12/15 07:50:23;;;;;;;18.05;7.68;;;;;;;;;;5024191;28;20099;-63
2023/12/15 07:52:48;;;;;;;19.45;7.22;;;;;;;;;;5020398;28;20029;-61
2023/12/15 07:55:13;;;;;;;16.98;6.95;;;;;;;;;;5026881;28;20092;-63
2023/12/15 07:57:39;;;;;;;18.80;7.70;;;;;;;;;;5025644;28;20030;-63
2023/12/15 08:00:05;;;;;;;18.48;7.13;;;;;;;;;;5017989;28;20413;-63
2023/12/15 08:02:31;;;;;;;19.90;7.50;;;;;;;;;;5022488;28;20029;-63
2023/12/15 08:04:56;;;;;;;20.40;7.87;;;;;;;;;;5022746;28;20033;-63
2023/12/15 08:07:21;;;;;;;20.27;8.25;;;;;;;;;;5018365;28;20025;-62
2023/12/15 08:09:46;;;;;;;19.60;8.27;;;;;;;;;;5021992;28;20052;-63
2023/12/15 08:12:12;;;;;;;21.83;8.32;;;;;;;;;;5023835;28;20021;-63
2023/12/15 08:14:37;;;;;;;19.17;8.02;;;;;;;;;;5025563;28;20116;-63
2023/12/15 08:17:02;;;;;;;19.70;7.93;;;;;;;;;;5024724;28;20029;-63
2023/12/15 08:19:31;;;;;;;18.40;7.67;;;;;;;;;;5028407;28;20029;-61
2023/12/15 08:21:56;;;;;;;19.30;8.38;;;;;;;;;;5021444;28;20496;-64
2023/12/15 08:24:21;;;;;;;21.70;8.70;;;;;;;;;;5022016;28;20029;-64
2023/12/15 08:26:46;;;;;;;21.80;8.13;;;;;;;;;;5028064;28;20420;-63
2023/12/15 08:29:11;;;;;;;26.40;9.80;;;;;;;;;;5027317;28;20567;-63
2023/12/15 08:31:37;;;;;;;23.33;8.80;;;;;;;;;;5025840;28;20425;-63
2023/12/15 08:34:03;;;;;;;20.85;8.80;;;;;;;;;;5024614;28;20095;-61
2023/12/15 08:36:28;;;;;;;18.90;8.05;;;;;;;;;;5024906;28;20021;-64
2023/12/15 08:38:53;;;;;;;22.75;9.23;;;;;;;;;;5023960;28;20040;-64
2023/12/15 08:41:18;;;;;;;21.20;11.63;;;;;;;;;;5020749;28;20052;-64
2023/12/15 08:43:43;;;;;;;22.67;8.90;;;;;;;;;;5027433;28;20022;-64
2023/12/15 08:46:08;;;;;;;19.07;8.33;;;;;;;;;;5018569;28;20037;-63
2023/12/15 08:48:34;;;;;;;23.27;9.30;;;;;;;;;;5026000;28;20526;-63
2023/12/15 08:50:59;;;;;;;21.50;9.40;;;;;;;;;;5027991;28;20104;-63
2023/12/15 08:53:24;;;;;;;22.27;9.18;;;;;;;;;;5019736;28;20028;-62
2023/12/15 08:55:49;;;;;;;22.90;10.15;;;;;;;;;;5026634;28;20116;-64
2023/12/15 08:58:14;;;;;;;21.20;8.87;;;;;;;;;;5025639;28;20394;-64
2023/12/15 09:00:40;;;;;;;21.90;8.52;;;;;;;;;;5026566;28;20038;-63
2023/12/15 09:03:05;;;;;;;21.83;9.20;;;;;;;;;;5027757;28;20052;-64
2023/12/15 09:05:31;;;;;;;21.87;8.83;;;;;;;;;;5022316;28;20026;-63
2023/12/15 09:07:57;;;;;;;20.88;9.27;;;;;;;;;;5028419;28;20471;-63
2023/12/15 09:10:22;;;;;;;22.20;8.93;;;;;;;;;;5027882;28;20029;-62
2023/12/15 09:12:48;;;;;;;17.90;8.13;;;;;;;;;;5025535;28;20080;-63
2023/12/15 09:15:13;;;;;;;19.93;8.43;;;;;;;;;;5024865;28;20021;-63
2023/12/15 09:17:41;;;;;;;20.33;9.37;;;;;;;;;;5030088;28;20354;-62
2023/12/15 09:20:07;;;;;;;18.73;9.13;;;;;;;;;;5023071;28;20533;-62
2023/12/15 09:22:32;;;;;;;19.85;9.27;;;;;;;;;;5028805;28;20501;-64
2023/12/15 09:24:58;;;;;;;19.85;9.95;;;;;;;;;;5027877;28;20033;-64
2023/12/15 09:27:23;;;;;;;21.30;8.80;;;;;;;;;;5028458;28;20029;-62
2023/12/15 09:29:48;;;;;;;20.17;8.65;;;;;;;;;;5018104;28;20030;-63
2023/12/15 09:32:13;;;;;;;21.73;9.25;;;;;;;;;;5017759;28;20029;-63
2023/12/15 09:34:38;;;;;;;21.35;9.43;;;;;;;;;;5020025;28;20123;-63
2023/12/15 09:37:03;;;;;;;22.73;9.45;;;;;;;;;;5018768;28;20029;-64
2023/12/15 09:39:28;;;;;;;19.63;8.93;;;;;;;;;;5031768;28;20017;-62
2023/12/15 09:41:53;;;;;;;22.37;9.20;;;;;;;;;;5024920;28;20061;-63
2023/12/15 09:44:19;;;;;;;20.48;8.52;;;;;;;;;;5033478;28;20037;-61
2023/12/15 09:46:44;;;;;;;21.83;8.70;;;;;;;;;;5026488;28;20026;-62
2023/12/15 09:49:13;;;;;;;19.70;8.38;;;;;;;;;;5031462;28;20134;-63
2023/12/15 09:51:39;;;;;;;18.92;8.90;;;;;;;;;;5024133;28;20032;-62
2023/12/15 09:54:04;;;;;;;19.55;8.57;;;;;;;;;;5028981;28;20013;-63
2023/12/15 09:56:29;;;;;;;17.77;8.03;;;;;;;;;;5021605;28;20032;-63
2023/12/15 09:58:55;;;;;;;17.55;8.25;;;;;;;;;;5029750;28;20453;-62
2023/12/15 10:01:20;;;;;;;17.40;7.83;;;;;;;;;;5025283;28;20025;-61
2023/12/15 10:03:46;;;;;;;17.98;8.50;;;;;;;;;;5029140;28;20555;-63
2023/12/15 10:06:11;;;;;;;20.13;9.18;;;;;;;;;;5032579;28;20029;-63
2023/12/15 10:08:45;;;;;;;23.77;9.35;;;;;;;;;;5029148;28;20064;-64
2023/12/15 10:11:10;;;;;;;18.92;8.75;;;;;;;;;;5031196;28;20061;-63
2023/12/15 10:13:38;;;;;;;20.00;9.23;;;;;;;;;;5030404;28;20064;-64
2023/12/15 10:16:04;;;;;;;18.67;9.10;;;;;;;;;;5019574;28;20049;-64
2023/12/15 10:18:30;;;;;;;18.77;8.17;;;;;;;;;;5032413;28;20033;-62
2023/12/15 10:20:55;;;;;;;17.70;7.78;;;;;;;;;;5021872;28;20493;-64
2023/12/15 10:23:27;;;;;;;17.77;8.67;;;;;;;;;;5025809;28;20030;-61
2023/12/15 10:25:53;;;;;;;20.35;9.30;;;;;;;;;;5030958;28;20103;-63
2023/12/15 10:28:18;;;;;;;19.67;8.27;;;;;;;;;;5029402;28;20025;-64
2023/12/15 10:30:44;;;;;;;18.23;8.57;;;;;;;;;;5023536;28;20583;-63
2023/12/15 10:33:10;;;;;;;21.27;8.65;;;;;;;;;;5028552;28;20025;-62
2023/12/15 10:35:36;;;;;;;18.95;8.85;;;;;;;;;;5020754;28;20036;-62
2023/12/15 10:38:01;;;;;;;17.38;9.10;;;;;;;;;;5024866;28;20109;-64
2023/12/15 10:40:27;;;;;;;17.25;7.60;;;;;;;;;;5018581;28;20108;-64
2023/12/15 10:42:52;;;;;;;18.63;8.73;;;;;;;;;;5019753;28;20029;-64
2023/12/15 10:45:18;;;;;;;18.58;8.90;;;;;;;;;;5013262;28;20040;-63
2023/12/15 10:47:43;;;;;;;18.00;8.07;;;;;;;;;;5015106;28;20462;-62
2023/12/15 10:50:09;;;;;;;19.88;8.85;;;;;;;;;;5019777;28;20025;-64
2023/12/15 10:52:37;;;;;;;20.67;14.52;;;;;;;;;;5026855;28;20071;-62
2023/12/15 10:55:03;;;;;;;21.02;14.75;;;;;;;;;;5021312;28;20025;-63
2023/12/15 10:57:30;;;;;;;21.83;9.65;;;;;;;;;;5027340;28;20014;-63
2023/12/15 10:59:55;;;;;;;20.20;9.25;;;;;;;;;;5018431;28;20034;-64
2023/12/15 11:02:21;;;;;;;19.23;8.73;;;;;;;;;;5025682;28;20500;-63
2023/12/15 11:04:51;;;;;;;21.02;10.40;;;;;;;;;;5026020;28;20540;-63
2023/12/15 11:07:19;;;;;;;18.42;8.82;;;;;;;;;;5025440;28;20029;-64
2023/12/15 11:09:45;;;;;;;22.70;14.88;;;;;;;;;;5026004;28;20022;-63
2023/12/15 11:12:22;;;;;;;22.08;9.02;;;;;;;;;;5023533;28;20168;-64
2023/12/15 11:15:10;;;;;;;18.85;8.80;;;;;;;;;;5025372;28;20388;-64
2023/12/15 11:17:43;;;;;;;19.27;9.23;;;;;;;;;;5012153;28;20045;-63
2023/12/15 11:20:12;;;;;;;20.42;9.60;;;;;;;;;;5022593;28;20026;-63
2023/12/15 11:22:55;;;;;;;20.88;9.43;;;;;;;;;;5020907;28;20026;-62
2023/12/15 11:25:24;;;;;;;19.92;9.07;;;;;;;;;;5021623;28;20461;-63
2023/12/15 11:28:07;;;;;;;19.05;9.10;;;;;;;;;;5022728;28;20047;-63
2023/12/15 11:30:37;;;;;;;19.02;8.23;;;;;;;;;;5021081;28;20437;-63
2023/12/15 11:33:27;;;;;;;19.17;8.30;;;;;;;;;;5018709;28;20100;-64
2023/12/15 11:36:02;;;;;;;19.55;12.68;;;;;;;;;;5026235;28;20029;-63
2023/12/15 11:38:27;;;;;;;18.77;7.97;;;;;;;;;;5025059;28;20075;-63
2023/12/15 11:40:53;;;;;;;16.70;7.40;;;;;;;;;;5022979;28;20422;-63
2023/12/15 11:43:18;;;;;;;20.23;8.05;;;;;;;;;;5026120;28;20025;-63
2023/12/15 11:45:44;;;;;;;21.33;14.18;;;;;;;;;;5027100;28;20438;-63
2023/12/15 11:48:09;;;;;;;20.70;9.23;;;;;;;;;;5021110;28;20099;-63
2023/12/15 11:50:35;;;;;;;18.85;8.65;;;;;;;;;;5021488;28;20497;-63
2023/12/15 11:53:05;;;;;;;17.40;8.43;;;;;;;;;;5027166;28;20113;-63
2023/12/15 11:55:30;;;;;;;18.67;7.80;;;;;;;;;;5023139;28;20037;-64
2023/12/15 11:57:55;;;;;;;18.40;8.93;;;;;;;;;;5027818;28;20082;-63
2023/12/15 12:00:20;;;;;;;19.17;8.43;;;;;;;;;;5024773;28;20028;-63
2023/12/15 12:02:46;;;;;;;15.82;6.82;;;;;;;;;;5023176;28;20159;-63
2023/12/15 12:05:12;;;;;;;16.25;7.07;;;;;;;;;;5018891;28;20393;-63
2023/12/15 12:07:37;;;;;;;16.70;7.38;;;;;;;;;;5024813;28;20033;-62
2023/12/15 12:10:05;;;;;;;15.93;7.47;;;;;;;;;;5027360;28;20056;-62
2023/12/15 12:12:30;;;;;;;13.70;6.55;;;;;;;;;;5016688;28;20021;-63
2023/12/15 12:15:01;;;;;;;15.18;9.88;;;;;;;;;;5025985;28;20098;-62
2023/12/15 12:17:26;;;;;;;15.07;6.60;;;;;;;;;;5023623;28;20172;-62
2023/12/15 12:19:51;;;;;;;19.33;12.90;;;;;;;;;;5026958;28;20479;-63
2023/12/15 12:22:18;;;;;;;14.23;6.32;;;;;;;;;;5027137;28;20044;-62
2023/12/15 12:24:43;;;;;;;;;;;;;;;;;;5026338;28;20025;-63
2023/12/15 12:27:08;;;;;;;15.38;6.25;;;;;;;;;;5022689;28;19909;-62
2023/12/15 12:29:35;;;;;;;16.83;6.78;;;;;;;;;;5018427;28;20498;-63
2023/12/15 12:32:00;;;;;;;19.00;7.50;;;;;;;;;;5018880;28;20022;-63
2023/12/15 12:34:26;;;;;;;21.37;6.97;;;;;;;;;;5019757;28;20057;-62
2023/12/15 12:36:51;;;;;;;19.02;6.95;;;;;;;;;;5025051;28;20583;-61
2023/12/15 12:39:20;;;;;;;14.45;6.57;;;;;;;;;;5018650;28;20026;-62
2023/12/15 12:41:45;;;;;;;17.48;7.60;;;;;;;;;;5025341;28;20489;-63
2023/12/15 12:44:11;;;;;;;15.80;6.57;;;;;;;;;;5029235;28;20048;-65
2023/12/15 12:46:36;;;;;;;13.88;5.95;;;;;;;;;;5025824;28;20688;-63
2023/12/15 12:49:01;;;;;;;15.10;6.90;;;;;;;;;;5026337;28;20493;-62
2023/12/15 12:51:27;;;;;;;15.50;6.72;;;;;;;;;;5027126;28;20029;-62
2023/12/15 12:53:52;;;;;;;18.60;7.28;;;;;;;;;;5027639;28;20101;-62
2023/12/15 12:56:20;;;;;;;14.53;5.67;;;;;;;;;;5024953;28;20113;-62
2023/12/15 12:58:46;;;;;;;16.63;7.78;;;;;;;;;;5023213;28;20033;-62
2023/12/15 13:01:11;;;;;;;13.20;5.55;;;;;;;;;;5026558;28;20393;-63
2023/12/15 13:03:36;;;;;;;13.03;5.27;;;;;;;;;;5028785;28;20072;-63
2023/12/15 13:06:01;;;;;;;12.10;6.67;;;;;;;;;;5019142;28;20029;-62
2023/12/15 13:08:27;;;;;;;14.20;6.33;;;;;;;;;;5018197;28;20448;-63
2023/12/15 13:10:52;;;;;;;13.57;6.07;;;;;;;;;;5026068;28;20049;-62
2023/12/15 13:13:17;;;;;;;11.90;5.63;;;;;;;;;;5021822;28;20033;-64
2023/12/15 13:15:42;;;;;;;12.10;6.38;;;;;;;;;;5027791;28;20512;-63
2023/12/15 13:18:09;;;;;;;11.85;4.65;;;;;;;;;;5028556;28;20029;-63
2023/12/15 13:20:34;;;;;;;10.98;4.70;;;;;;;;;;5023466;28;20048;-63
2023/12/15 13:23:01;;;;;;;10.88;4.35;;;;;;;;;;5024608;28;20018;-61
2023/12/15 13:25:26;;;;;;;10.90;4.78;;;;;;;;;;5025420;28;20500;-64
2023/12/15 13:27:52;;;;;;;10.50;4.47;;;;;;;;;;5030134;28;20021;-64
2023/12/15 13:30:17;;;;;;;10.65;4.53;;;;;;;;;;5032653;28;20025;-63
2023/12/15 13:32:42;;;;;;;15.40;6.25;;;;;;;;;;5027447;28;20124;-62
2023/12/15 13:35:08;;;;;;;9.93;4.13;;;;;;;;;;5032461;28;20478;-63
2023/12/15 13:37:33;;;;;;;9.15;3.78;;;;;;;;;;5031810;28;20014;-63
2023/12/15 13:39:58;;;;;;;12.77;4.50;;;;;;;;;;5024901;28;20025;-63
2023/12/15 13:42:24;;;;;;;11.47;4.40;;;;;;;;;;5018211;28;20499;-63
2023/12/15 13:44:50;;;;;;;9.35;3.78;;;;;;;;;;5015612;28;20029;-62
2023/12/15 13:47:15;;;;;;;9.67;4.37;;;;;;;;;;5024225;28;20421;-63
2023/12/15 13:49:40;;;;;;;9.63;3.92;;;;;;;;;;5017162;28;20017;-63
2023/12/15 13:52:06;;;;;;;8.63;4.00;;;;;;;;;;5012965;28;20025;-63
2023/12/15 13:54:32;;;;;;;8.57;3.83;;;;;;;;;;5021984;28;20075;-63
2023/12/15 13:57:01;;;;;;;8.18;3.63;;;;;;;;;;5022908;28;20034;-64
2023/12/15 13:59:26;;;;;;;9.15;3.80;;;;;;;;;;5023207;28;20075;-64
2023/12/15 14:01:51;;;;;;;13.38;3.97;;;;;;;;;;5017218;28;20045;-63
2023/12/15 14:04:17;;;;;;;8.70;4.03;;;;;;;;;;5017276;28;20041;-63
2023/12/15 14:06:48;;;;;;;9.38;3.35;;;;;;;;;;5028810;28;20155;-63
2023/12/15 14:09:13;;;;;;;8.40;3.30;;;;;;;;;;5014105;28;20022;-63
2023/12/15 14:11:38;;;;;;;8.65;3.70;;;;;;;;;;5030220;28;20013;-63
2023/12/15 14:14:03;;;;;;;9.43;3.75;;;;;;;;;;5023364;28;20117;-63
2023/12/15 14:16:28;;;;;;;6.70;3.03;;;;;;;;;;5010520;28;20437;-62
2023/12/15 14:18:54;;;;;;;8.68;3.40;;;;;;;;;;5013607;28;20402;-63
2023/12/15 14:21:19;;;;;;;7.67;2.97;;;;;;;;;;5033275;28;20037;-63